Mableton, Georgia
Current Conditions -  °F | °C
As of 5:53 PM on Wednesday 26 Nov 2014 (Local Time) from KFTY Reporting Station
Few Clouds Few Clouds  
Wind Chill: 50°   Ceiling: Unl
Heat Index: 50°   Visibility: 10mi
Dew Point: 24°   Wind: 3mph
Humidity: 36%   Direction: 260°W
Pressure: 30.07"   Gusts: NA
Location:  33.82°N, 84.58°W
Report Text: KFTY 262253Z 26003KT 10SM FEW110 10/M04 A3007 RMK AO2 SLP184 T01001044
Loading
Personal Weather Stations






























Interactive Weather Map New forecast layout! Learn more

10-Day Weather Forecast

Advertisements
Track Severe Weather on mobile